Time;durP1;ratioP1;P1;durP2;ratioP2;P2;SDS_P1;SDS_P2;PMS_P1;PMS_P2;Temp;Humidity;BMP_temperature;BMP_pressure;BME280_temperature;BME280_humidity;BME280_pressure;Samples;Min_cycle;Max_cycle;Signal;HPM_P1;HPM_P2
2023/09/04 00:02:12;;;;;;;6.68;6.18;;;;;;;13.49;100.00;102104.03;6091541;23;20542;-76
2023/09/04 00:04:38;;;;;;;7.13;6.53;;;;;;;13.60;100.00;102130.00;6118327;23;20239;-76
2023/09/04 00:07:05;;;;;;;7.00;6.40;;;;;;;13.62;100.00;102120.22;6115927;23;20025;-76
2023/09/04 00:09:31;;;;;;;6.75;6.15;;;;;;;13.70;100.00;102128.69;6114458;23;20021;-75
2023/09/04 00:11:58;;;;;;;6.80;6.40;;;;;;;13.57;100.00;102117.78;6114786;23;20073;-76
2023/09/04 00:14:24;;;;;;;7.03;6.50;;;;;;;13.39;100.00;102095.69;6092061;23;20175;-76
2023/09/04 00:16:51;;;;;;;6.57;6.13;;;;;;;13.66;100.00;102137.66;6086836;23;20108;-75
2023/09/04 00:19:17;;;;;;;6.75;6.25;;;;;;;13.67;100.00;102140.22;6117501;23;20051;-76
2023/09/04 00:21:44;;;;;;;6.18;5.78;;;;;;;13.22;100.00;102083.16;6114092;23;20021;-75
2023/09/04 00:24:11;;;;;;;6.88;6.30;;;;;;;12.70;100.00;101999.16;6082777;23;20029;-73
2023/09/04 00:26:37;;;;;;;6.65;6.15;;;;;;;13.61;100.00;102152.78;6114956;23;20096;-75
2023/09/04 00:29:04;;;;;;;6.72;6.22;;;;;;;13.16;100.00;102076.34;6086792;23;20017;-75
2023/09/04 00:31:30;;;;;;;6.60;6.00;;;;;;;13.43;100.00;102118.38;6088580;23;20149;-73
2023/09/04 00:33:57;;;;;;;7.07;6.43;;;;;;;13.70;100.00;102160.34;6113441;23;20092;-74
2023/09/04 00:36:24;;;;;;;6.90;6.40;;;;;;;13.44;100.00;102138.53;6095062;23;20032;-75
2023/09/04 00:38:50;;;;;;;7.68;7.05;;;;;;;12.32;100.00;101969.09;6113415;23;20030;-76
2023/09/04 00:41:19;;;;;;;7.15;6.55;;;;;;;13.49;100.00;102160.31;6090808;23;20026;-76
2023/09/04 00:43:46;;;;;;;7.38;6.65;;;;;;;13.53;100.00;102161.03;6089445;23;20113;-74
2023/09/04 00:46:13;;;;;;;6.70;6.28;;;;;;;13.49;100.00;102162.06;6063386;23;20080;-76
2023/09/04 00:48:40;;;;;;;7.13;6.55;;;;;;;13.41;100.00;102153.63;6111809;23;20562;-74
2023/09/04 00:51:07;;;;;;;6.75;6.25;;;;;;;12.84;100.00;102080.28;6095587;23;20041;-76
2023/09/04 00:53:33;;;;;;;6.95;6.47;;;;;;;13.00;100.00;102124.47;6091759;23;20029;-77
2023/09/04 00:56:02;;;;;;;7.47;6.78;;;;;;;13.33;100.00;102194.34;6090831;23;20009;-74
2023/09/04 00:58:29;;;;;;;7.20;6.63;;;;;;;13.36;100.00;102173.13;6113419;23;20090;-75
2023/09/04 01:00:55;;;;;;;7.13;6.63;;;;;;;12.98;100.00;102103.44;6119410;23;20096;-75
2023/09/04 01:03:23;;;;;;;6.97;6.40;;;;;;;13.33;100.00;102175.00;6113405;23;20057;-74
2023/09/04 01:05:49;;;;;;;7.13;6.57;;;;;;;13.29;100.00;102170.75;6113004;23;20464;-78
2023/09/04 01:08:16;;;;;;;9.02;6.63;;;;;;;13.24;100.00;102170.94;6113554;23;20531;-76
2023/09/04 01:11:11;;;;;;;7.22;6.70;;;;;;;13.04;100.00;102128.72;6090452;23;20104;-74
2023/09/04 01:13:46;;;;;;;6.88;6.38;;;;;;;13.31;100.00;102169.81;6116514;23;20024;-75
2023/09/04 01:16:14;;;;;;;6.63;6.13;;;;;;;13.29;100.00;102170.75;6089892;23;20029;-74
2023/09/04 01:18:41;;;;;;;6.40;6.00;;;;;;;12.63;100.00;102049.50;6088136;23;20036;-74
2023/09/04 01:21:11;;;;;;;7.40;6.85;;;;;;;13.35;100.00;102166.16;6112091;23;20038;-75
2023/09/04 01:23:38;;;;;;;7.70;7.00;;;;;;;13.15;100.00;102137.91;6117640;23;20045;-77
2023/09/04 01:26:10;;;;;;;6.50;6.00;;;;;;;13.33;100.00;102172.38;6116671;23;20020;-76
2023/09/04 01:28:48;;;;;;;7.70;6.85;;;;;;;13.19;100.00;102138.66;6114691;23;20037;-75
2023/09/04 01:31:22;;;;;;;7.35;6.65;;;;;;;13.30;100.00;102162.81;6090842;23;20029;-74
2023/09/04 01:33:57;;;;;;;6.10;5.70;;;;;;;13.29;100.00;102166.41;6113483;23;20530;-76
2023/09/04 01:36:28;;;;;;;7.00;6.50;;;;;;;13.21;100.00;102157.03;6111205;23;20111;-75
2023/09/04 01:38:55;;;;;;;7.40;6.68;;;;;;;13.13;100.00;102158.19;6092859;23;20082;-75
2023/09/04 01:41:22;;;;;;;7.05;6.45;;;;;;;13.07;100.00;102149.66;6113107;23;20017;-76
2023/09/04 01:43:48;;;;;;;6.40;5.95;;;;;;;12.95;100.00;102120.25;6110934;23;20096;-74
2023/09/04 01:46:15;;;;;;;7.78;6.63;;;;;;;12.50;100.00;102059.66;6085412;23;20089;-76
2023/09/04 01:48:41;;;;;;;6.78;6.22;;;;;;;13.23;100.00;102171.00;6093441;23;20025;-74
2023/09/04 01:51:08;;;;;;;6.95;6.32;;;;;;;13.17;100.00;102172.97;6090093;23;20209;-75
2023/09/04 01:53:34;;;;;;;7.15;6.65;;;;;;;13.23;100.00;102171.00;6113273;23;20021;-77
2023/09/04 01:56:01;;;;;;;7.35;6.82;;;;;;;13.23;100.00;102176.28;6084734;23;20017;-75
2023/09/04 01:58:28;;;;;;;6.43;6.00;;;;;;;12.61;100.00;102059.25;6114502;23;20093;-75
2023/09/04 02:00:54;;;;;;;6.93;6.43;;;;;;;13.24;100.00;102168.31;6085876;23;20088;-74
2023/09/04 02:03:21;;;;;;;7.43;6.82;;;;;;;11.96;100.00;101949.38;6114316;23;20758;-75
2023/09/04 02:05:47;;;;;;;7.72;6.95;;;;;;;13.22;100.00;102169.31;6115314;23;20017;-76
2023/09/04 02:08:14;;;;;;;7.72;7.10;;;;;;;13.09;100.00;102153.97;6111714;23;20048;-76
2023/09/04 02:10:40;;;;;;;6.97;6.38;;;;;;;12.85;100.00;102125.91;6109713;23;20010;-74
2023/09/04 02:13:07;;;;;;;6.90;6.40;;;;;;;13.11;100.00;102183.75;6114448;23;20080;-73
2023/09/04 02:15:35;;;;;;;6.80;6.38;;;;;;;12.66;100.00;102107.34;6115990;23;20031;-76
2023/09/04 02:18:01;;;;;;;7.30;6.70;;;;;;;12.20;100.00;102030.97;6088138;23;20265;-76
2023/09/04 02:20:31;;;;;;;7.75;7.05;;;;;;;13.00;100.00;102167.50;6114375;23;20021;-74
2023/09/04 02:22:58;;;;;;;7.10;6.55;;;;;;;13.10;100.00;102163.56;6099536;23;20081;-77
2023/09/04 02:25:25;;;;;;;6.93;6.32;;;;;;;12.11;100.00;101990.06;6114214;23;20045;-74
2023/09/04 02:27:51;;;;;;;7.13;6.43;;;;;;;13.10;100.00;102153.03;6084162;23;20635;-75
2023/09/04 02:30:18;;;;;;;7.50;6.40;;;;;;;12.74;100.00;102105.28;6112991;23;22539;-76
2023/09/04 02:32:45;;;;;;;6.60;6.10;;;;;;;12.46;100.00;102055.44;6062264;23;20022;-75
2023/09/04 02:35:11;;;;;;;6.88;6.38;;;;;;;13.02;100.00;102156.91;6067649;23;20093;-75
2023/09/04 02:37:38;;;;;;;7.25;6.65;;;;;;;13.05;100.00;102162.03;6087923;23;20037;-74
2023/09/04 02:40:06;;;;;;;7.20;6.50;;;;;;;12.55;100.00;102084.06;6110977;23;20032;-77
2023/09/04 02:42:33;;;;;;;6.70;6.10;;;;;;;12.69;100.00;102118.63;6112652;23;20067;-74
2023/09/04 02:44:59;;;;;;;7.35;6.82;;;;;;;12.84;100.00;102150.56;6094957;23;20026;-74
2023/09/04 02:47:25;;;;;;;7.15;6.45;;;;;;;12.81;100.00;102142.75;6080081;23;20099;-75
2023/09/04 02:49:52;;;;;;;6.10;5.70;;;;;;;12.96;100.00;102164.13;6115206;23;20043;-77
2023/09/04 02:52:18;;;;;;;8.18;6.40;;;;;;;12.91;100.00;102162.56;6085790;23;20024;-75
2023/09/04 02:54:45;;;;;;;6.40;5.90;;;;;;;12.87;100.00;102155.69;6116173;23;20040;-74
2023/09/04 02:57:11;;;;;;;7.10;6.50;;;;;;;12.92;100.00;102161.66;6093707;23;20018;-76
2023/09/04 02:59:38;;;;;;;6.28;5.78;;;;;;;12.85;100.00;102154.91;6088069;23;20073;-75
2023/09/04 03:02:04;;;;;;;7.25;6.55;;;;;;;12.93;100.00;102176.56;6112924;23;20092;-75
2023/09/04 03:04:31;;;;;;;6.68;6.07;;;;;;;12.65;100.00;102126.69;6115222;23;20025;-76
2023/09/04 03:06:58;;;;;;;7.20;6.60;;;;;;;12.60;100.00;102132.13;6113793;23;20013;-74
2023/09/04 03:09:24;;;;;;;7.28;6.57;;;;;;;12.65;100.00;102158.28;6111443;23;20021;-75
2023/09/04 03:11:51;;;;;;;6.28;5.88;;;;;;;12.63;100.00;102166.28;6116790;23;20403;-76
2023/09/04 03:14:17;;;;;;;7.18;6.47;;;;;;;12.74;100.00;102195.69;6114223;23;20092;-75
2023/09/04 03:16:43;;;;;;;7.05;6.45;;;;;;;12.58;100.00;102176.97;6116925;23;20027;-73
2023/09/04 03:19:10;;;;;;;7.57;6.97;;;;;;;12.52;100.00;102168.44;6086787;23;20081;-75
2023/09/04 03:21:36;;;;;;;7.22;6.60;;;;;;;12.69;100.00;102208.19;6115167;23;20093;-75
2023/09/04 03:24:03;;;;;;;7.20;6.50;;;;;;;12.34;100.00;102170.81;6111837;23;20021;-75
2023/09/04 03:26:30;;;;;;;7.00;6.40;;;;;;;12.62;100.00;102208.47;6089104;23;20092;-73
2023/09/04 03:28:56;;;;;;;6.50;6.05;;;;;;;12.59;100.00;102201.53;6118451;23;20786;-75
2023/09/04 03:31:23;;;;;;;6.60;6.00;;;;;;;12.46;100.00;102179.19;6116063;23;20151;-75
2023/09/04 03:33:49;;;;;;;5.18;4.88;;;;;;;12.62;100.00;102204.03;6097918;23;20021;-73
2023/09/04 03:36:16;;;;;;;6.22;5.82;;;;;;;12.03;100.00;102099.13;6111506;23;20033;-75
2023/09/04 03:38:43;;;;;;;6.00;5.60;;;;;;;12.63;100.00;102197.88;6088517;23;20025;-73
2023/09/04 03:41:09;;;;;;;5.63;5.32;;;;;;;12.32;100.00;102151.59;6091668;23;20048;-75
2023/09/04 03:43:36;;;;;;;5.53;5.13;;;;;;;12.11;100.00;102110.25;6123295;23;20028;-75
2023/09/04 03:46:02;;;;;;;6.07;5.68;;;;;;;12.31;100.00;102128.81;6115216;23;20026;-73
2023/09/04 03:48:29;;;;;;;5.40;5.10;;;;;;;12.57;100.00;102171.78;6131400;23;20037;-77
2023/09/04 03:50:59;;;;;;;5.28;4.97;;;;;;;12.08;100.00;102105.94;6110144;23;20091;-75
2023/09/04 03:53:26;;;;;;;5.47;5.18;;;;;;;12.08;100.00;102108.59;6093591;23;20050;-73
2023/09/04 03:55:52;;;;;;;5.50;5.00;;;;;;;12.31;100.00;102152.50;6087519;23;20066;-73
2023/09/04 03:58:19;;;;;;;5.82;5.53;;;;;;;11.65;100.00;102065.38;6058772;23;20034;-75
2023/09/04 04:00:55;;;;;;;7.00;6.47;;;;;;;12.15;100.00;102132.94;6085963;23;20034;-74
2023/09/04 04:03:21;;;;;;;5.15;4.85;;;;;;;12.18;100.00;102131.03;6085643;23;20085;-73
2023/09/04 04:05:48;;;;;;;5.47;5.10;;;;;;;12.22;100.00;102141.44;6085111;23;20074;-74
2023/09/04 04:08:15;;;;;;;6.82;6.35;;;;;;;12.11;100.00;102113.75;6053391;23;20418;-75
2023/09/04 04:10:41;;;;;;;5.10;4.80;;;;;;;12.26;100.00;102154.44;6060717;23;20022;-76
2023/09/04 04:13:07;;;;;;;5.53;5.13;;;;;;;10.56;100.00;101875.50;6061973;23;20624;-74
2023/09/04 04:15:34;;;;;;;5.35;5.10;;;;;;;12.01;100.00;102135.16;6085326;23;20010;-74
2023/09/04 04:18:01;;;;;;;5.85;5.32;;;;;;;12.26;100.00;102178.13;6060195;23;20041;-75
2023/09/04 04:20:27;;;;;;;5.43;5.10;;;;;;;12.26;100.00;102187.81;6058567;23;20053;-73
2023/09/04 04:22:54;;;;;;;5.63;5.30;;;;;;;12.16;100.00;102172.31;6080604;23;20018;-76
2023/09/04 04:25:20;;;;;;;5.32;4.97;;;;;;;12.16;100.00;102145.16;6087382;23;20679;-73
2023/09/04 04:27:46;;;;;;;5.35;5.05;;;;;;;12.10;100.00;102140.09;6063623;23;20634;-74
2023/09/04 04:30:13;;;;;;;5.32;5.03;;;;;;;12.34;100.00;102172.59;6085336;23;20024;-73
2023/09/04 04:32:39;;;;;;;5.60;5.20;;;;;;;11.92;100.00;102104.78;6062872;23;20496;-76
2023/09/04 04:35:07;;;;;;;4.85;4.63;;;;;;;11.85;100.00;102114.63;6085818;23;20082;-74
2023/09/04 04:37:34;;;;;;;5.45;5.15;;;;;;;11.86;100.00;102129.50;6063155;23;20497;-75
2023/09/04 04:40:02;;;;;;;5.68;5.28;;;;;;;12.20;100.00;102183.59;6087977;23;20022;-78
2023/09/04 04:42:29;;;;;;;5.45;5.15;;;;;;;11.92;100.00;102149.50;6067854;23;20085;-73
2023/09/04 04:44:55;;;;;;;5.13;4.82;;;;;;;12.13;100.00;102182.13;6088802;23;20026;-75
2023/09/04 04:47:22;;;;;;;5.10;4.80;;;;;;;12.02;100.00;102173.72;6087706;23;20081;-72
2023/09/04 04:49:48;;;;;;;5.63;5.22;;;;;;;12.12;100.00;102193.53;6088380;23;20021;-74
2023/09/04 04:52:15;;;;;;;5.80;5.40;;;;;;;12.10;100.00;102190.97;6124982;23;20094;-74
2023/09/04 04:54:42;;;;;;;5.20;4.90;;;;;;;11.98;100.00;102197.50;6124217;23;20105;-76
2023/09/04 04:57:08;;;;;;;6.22;5.75;;;;;;;11.68;100.00;102154.66;6119130;23;20085;-74
2023/09/04 04:59:36;;;;;;;5.78;5.40;;;;;;;11.70;100.00;102173.00;6121867;23;20037;-74
2023/09/04 05:02:02;;;;;;;5.03;4.75;;;;;;;11.80;100.00;102200.72;6120641;23;20618;-73
2023/09/04 05:04:29;;;;;;;5.53;5.13;;;;;;;11.78;100.00;102197.28;6096870;23;20130;-73
2023/09/04 05:06:55;;;;;;;5.10;4.80;;;;;;;11.62;100.00;102159.25;6127402;23;20032;-74
2023/09/04 05:09:22;;;;;;;5.70;5.30;;;;;;;11.95;100.00;102202.88;6092412;23;20025;-74
2023/09/04 05:11:48;;;;;;;5.07;4.68;;;;;;;11.48;100.00;102102.72;6125531;23;20030;-72
2023/09/04 05:14:14;;;;;;;5.80;5.40;;;;;;;12.16;100.00;102214.44;6088073;23;20535;-73
2023/09/04 05:16:41;;;;;;;5.40;5.10;;;;;;;12.25;100.00;102210.66;6126129;23;20132;-72
2023/09/04 05:19:07;;;;;;;5.85;5.45;;;;;;;12.36;100.00;102226.06;6122210;23;20034;-75
2023/09/04 05:21:34;;;;;;;5.20;4.80;;;;;;;11.44;100.00;102058.19;6119171;23;20048;-72
2023/09/04 05:24:20;;;;;;;5.63;5.32;;;;;;;12.26;100.00;102170.22;6127601;23;20024;-74
2023/09/04 05:26:46;;;;;;;5.30;5.00;;;;;;;12.44;100.00;102191.56;6098055;23;20029;-74
2023/09/04 05:29:13;;;;;;;6.57;6.07;;;;;;;12.73;100.00;102230.00;6129234;23;20126;-73
2023/09/04 05:31:39;;;;;;;5.70;5.30;;;;;;;12.85;100.00;102234.81;6089252;23;20009;-72
2023/09/04 05:34:06;;;;;;;6.82;6.25;;;;;;;12.58;100.00;102179.59;6095915;23;20042;-74
2023/09/04 05:36:32;;;;;;;5.53;5.28;;;;;;;13.03;100.00;102240.31;6119492;23;20088;-75
2023/09/04 05:38:59;;;;;;;6.90;5.72;;;;;;;12.82;100.00;102176.97;6099496;23;20056;-74
2023/09/04 05:41:25;;;;;;;5.85;5.47;;;;;;;13.09;100.00;102211.97;6118952;23;20718;-71
2023/09/04 05:43:52;;;;;;;5.95;5.65;;;;;;;12.88;100.00;102147.75;6120004;23;20029;-74
2023/09/04 05:46:18;;;;;;;6.20;5.85;;;;;;;13.62;100.00;102242.44;6119286;23;20029;-73
2023/09/04 05:48:45;;;;;;;6.05;5.60;;;;;;;13.62;100.00;102209.94;6119785;23;20034;-73
2023/09/04 05:51:12;;;;;;;5.28;5.03;;;;;;;13.91;100.00;102238.63;6122681;23;20026;-74
2023/09/04 05:53:38;;;;;;;5.95;5.55;;;;;;;13.83;100.00;102202.88;6120467;23;20574;-69
2023/09/04 05:56:07;;;;;;;5.40;5.10;;;;;;;13.97;100.00;102200.53;6114757;23;20048;-69
2023/09/04 05:58:34;;;;;;;5.50;5.20;;;;;;;13.82;100.00;102158.97;6097629;23;20379;-69
2023/09/04 06:01:00;;;;;;;4.70;4.50;;;;;;;13.97;100.00;102168.84;6118155;23;20467;-70
2023/09/04 06:03:27;;;;;;;5.95;5.60;;;;;;;14.12;100.00;102162.06;6071913;23;20600;-70
2023/09/04 06:05:53;;;;;;;4.78;4.57;;;;;;;14.38;100.00;102186.47;6094506;23;20021;-70
2023/09/04 06:08:20;;;;;;;5.10;4.90;;;;;;;14.45;100.00;102166.75;6122373;23;20056;-72
2023/09/04 06:10:47;;;;;;;5.15;4.88;;;;;;;14.63;100.00;102171.25;6098399;23;20027;-68
2023/09/04 06:13:13;;;;;;;5.38;5.05;;;;;;;14.87;100.00;102165.75;6125895;23;20045;-71
2023/09/04 06:15:40;;;;;;;5.05;4.85;;;;;;;14.93;100.00;102155.78;6120385;23;20041;-70
2023/09/04 06:18:06;;;;;;;4.88;4.68;;;;;;;15.16;100.00;102161.75;6122879;23;20029;-71
2023/09/04 06:20:33;;;;;;;4.80;4.60;;;;;;;14.73;100.00;102068.63;6122611;23;20108;-70
2023/09/04 06:22:59;;;;;;;4.80;4.60;;;;;;;15.06;100.00;102107.59;6118609;23;20041;-69
2023/09/04 06:25:28;;;;;;;5.00;4.80;;;;;;;15.30;100.00;102132.00;6095386;23;20092;-70
2023/09/04 06:27:55;;;;;;;5.28;4.97;;;;;;;14.90;100.00;102060.75;6093548;23;20032;-70
2023/09/04 06:30:21;;;;;;;5.40;5.20;;;;;;;15.32;100.00;102093.09;6093516;23;20078;-71
2023/09/04 06:32:48;;;;;;;5.00;4.80;;;;;;;15.80;100.00;102136.56;6119437;23;20031;-70
2023/09/04 06:35:14;;;;;;;5.05;4.85;;;;;;;15.92;100.00;102124.47;6104382;23;20029;-71
2023/09/04 06:37:41;;;;;;;5.75;5.45;;;;;;;15.96;100.00;102104.84;6116185;23;20694;-70
2023/09/04 06:40:08;;;;;;;5.35;5.05;;;;;;;16.07;100.00;102088.38;6103078;23;20056;-70
2023/09/04 06:42:37;;;;;;;5.60;5.30;;;;;;;15.99;100.00;102046.41;6093064;23;20029;-70
2023/09/04 06:45:03;;;;;;;5.30;5.00;;;;;;;16.25;100.00;102071.50;6100866;23;20071;-70
2023/09/04 06:47:30;;;;;;;5.65;5.28;;;;;;;16.37;100.00;102047.94;6121985;23;20035;-71
2023/09/04 06:49:56;;;;;;;5.60;5.30;;;;;;;16.54;100.00;102048.72;6056649;23;20072;-70
2023/09/04 06:52:23;;;;;;;5.85;5.50;;;;;;;16.52;100.00;102017.94;6112559;23;20117;-70
2023/09/04 06:54:49;;;;;;;5.88;5.45;;;;;;;16.39;100.00;101974.53;6111658;23;20029;-69
2023/09/04 06:57:16;;;;;;;5.80;5.50;;;;;;;16.81;100.00;102028.69;6055209;23;20685;-70
2023/09/04 06:59:42;;;;;;;5.65;5.25;;;;;;;16.71;100.00;101962.94;6109862;23;20041;-70
2023/09/04 07:02:09;;;;;;;5.43;5.20;;;;;;;17.02;100.00;101979.75;6093874;23;20020;-70
2023/09/04 07:04:36;;;;;;;5.63;5.22;;;;;;;17.11;100.00;101938.56;6113837;23;20025;-70
2023/09/04 07:07:03;;;;;;;5.00;4.80;;;;;;;17.28;100.00;101909.22;6093431;23;20018;-70
2023/09/04 07:09:29;;;;;;;4.90;4.70;;;;;;;17.38;96.88;101871.47;6114312;23;20073;-70
2023/09/04 07:11:55;;;;;;;4.97;4.78;;;;;;;17.26;95.69;101817.38;6082540;23;20444;-70
2023/09/04 07:14:22;;;;;;;5.18;4.90;;;;;;;17.67;94.24;101846.59;6113886;23;20029;-71
2023/09/04 07:16:48;;;;;;;5.47;5.18;;;;;;;17.40;92.33;101764.31;6113602;23;20017;-71
2023/09/04 07:19:33;;;;;;;5.38;5.18;;;;;;;17.74;90.74;101794.00;6108708;23;20719;-70
2023/09/04 07:21:59;;;;;;;5.22;4.97;;;;;;;17.51;89.57;101729.94;6112913;23;20041;-70
2023/09/04 07:24:26;;;;;;;5.18;4.95;;;;;;;17.90;89.13;101764.63;6117620;23;20033;-70
2023/09/04 07:26:52;;;;;;;5.10;4.90;;;;;;;17.58;87.12;101657.88;6110429;23;20024;-70
2023/09/04 07:29:18;;;;;;;5.00;4.80;;;;;;;18.04;86.83;101729.19;6084808;23;20029;-71
2023/09/04 07:31:45;;;;;;;5.60;5.30;;;;;;;18.18;87.26;101736.22;6112918;23;20051;-70
2023/09/04 07:34:11;;;;;;;5.60;5.30;;;;;;;18.55;86.68;101763.81;6113218;23;20082;-69
2023/09/04 07:36:38;;;;;;;5.63;5.32;;;;;;;18.42;84.53;101686.72;6110913;23;20575;-70
2023/09/04 07:39:04;;;;;;;5.55;5.25;;;;;;;18.74;83.66;101711.06;6084774;23;20597;-70
2023/09/04 07:41:31;;;;;;;5.40;5.10;;;;;;;18.44;82.62;101642.28;6112265;23;20077;-70
2023/09/04 07:43:57;;;;;;;4.93;4.72;;;;;;;18.40;81.07;101597.41;6114260;23;20033;-71
2023/09/04 07:46:23;;;;;;;5.50;5.20;;;;;;;19.04;81.29;101677.94;6114906;23;20515;-70
2023/09/04 07:48:50;;;;;;;5.13;4.93;;;;;;;19.14;79.38;101654.16;6086530;23;20018;-67
2023/09/04 07:51:18;;;;;;;5.60;5.30;;;;;;;18.91;78.18;101576.03;6107535;23;20037;-70
2023/09/04 07:54:00;;;;;;;5.25;5.05;;;;;;;19.58;77.85;101671.31;6114315;23;20506;-72
2023/09/04 07:56:30;;;;;;;5.50;5.20;;;;;;;19.60;76.47;101631.25;6083548;23;20059;-71
2023/09/04 07:59:07;;;;;;;6.10;5.80;;;;;;;19.53;74.71;101597.09;6111894;23;20116;-70
2023/09/04 08:01:33;;;;;;;5.40;5.15;;;;;;;19.71;74.86;101624.19;6115044;23;20095;-70
2023/09/04 08:04:01;;;;;;;5.38;5.18;;;;;;;19.60;73.41;101551.38;6115341;23;20038;-70
2023/09/04 08:06:28;;;;;;;5.50;5.20;;;;;;;19.65;72.14;101535.91;6111881;23;20080;-70
2023/09/04 08:08:55;;;;;;;5.65;5.35;;;;;;;19.78;71.51;101557.97;6087042;23;20018;-68
2023/09/04 08:11:21;;;;;;;5.30;5.10;;;;;;;19.81;71.30;101573.72;6093012;23;20844;-71
2023/09/04 08:13:48;;;;;;;5.70;5.40;;;;;;;19.73;70.85;101528.19;6117683;23;20013;-70
2023/09/04 08:16:14;;;;;;;5.78;5.47;;;;;;;19.21;71.10;101468.28;6113364;23;20034;-70
2023/09/04 08:18:40;;;;;;;5.60;5.30;;;;;;;20.07;69.75;101577.00;6086544;23;20562;-68
2023/09/04 08:21:07;;;;;;;5.93;5.32;;;;;;;19.51;69.50;101471.25;6118745;23;20052;-68
2023/09/04 08:23:33;;;;;;;5.80;5.50;;;;;;;20.34;69.18;101597.13;6118706;23;20109;-69
2023/09/04 08:26:00;;;;;;;5.70;5.40;;;;;;;20.33;69.81;101617.59;6113826;23;20037;-69
2023/09/04 08:28:27;;;;;;;6.00;5.70;;;;;;;20.44;68.52;101583.91;6111057;23;20046;-69
2023/09/04 08:30:54;;;;;;;5.85;5.55;;;;;;;20.50;68.60;101604.75;6114079;23;20025;-70
2023/09/04 08:33:21;;;;;;;5.90;5.60;;;;;;;20.36;68.45;101592.50;6115716;23;20041;-69
2023/09/04 08:35:50;;;;;;;5.50;5.20;;;;;;;20.58;67.86;101622.81;6111949;23;20025;-69
2023/09/04 08:38:17;;;;;;;5.63;5.40;;;;;;;20.13;68.76;101555.22;6115571;23;20101;-70
2023/09/04 08:40:44;;;;;;;5.30;5.10;;;;;;;20.51;68.47;101612.63;6114363;23;20102;-69
2023/09/04 08:43:11;;;;;;;5.60;5.30;;;;;;;20.57;67.63;101595.31;6114535;23;20038;-70
2023/09/04 08:45:40;;;;;;;5.90;5.60;;;;;;;20.53;66.97;101570.69;6109081;23;20035;-69
2023/09/04 08:48:08;;;;;;;5.35;5.15;;;;;;;21.06;67.34;101630.50;6112309;23;20052;-69
2023/09/04 08:50:38;;;;;;;5.45;5.25;;;;;;;21.04;66.38;101627.97;6092739;23;20032;-69
2023/09/04 08:53:04;;;;;;;5.65;5.35;;;;;;;21.06;66.61;101627.84;6114924;23;20035;-69
2023/09/04 08:55:33;;;;;;;5.35;5.15;;;;;;;21.33;66.68;101651.44;6094098;23;20830;-69
2023/09/04 08:58:01;;;;;;;8.05;5.55;;;;;;;21.36;65.83;101650.31;6112882;23;20099;-69
2023/09/04 09:00:28;;;;;;;5.53;5.22;;;;;;;21.37;65.37;101602.13;6113672;23;20017;-69
2023/09/04 09:02:59;;;;;;;5.50;5.20;;;;;;;21.31;66.06;101646.22;6112717;23;20425;-68
2023/09/04 09:05:29;;;;;;;5.57;5.28;;;;;;;21.34;66.10;101623.75;6104926;23;20017;-68
2023/09/04 09:07:56;;;;;;;5.65;5.45;;;;;;;21.95;65.05;101668.53;6114117;23;20030;-69
2023/09/04 09:10:23;;;;;;;6.20;5.80;;;;;;;21.84;64.40;101624.00;6114134;23;20048;-69
2023/09/04 09:12:50;;;;;;;5.70;5.40;;;;;;;21.91;64.04;101635.88;6111837;23;20029;-71
2023/09/04 09:15:18;;;;;;;5.90;5.60;;;;;;;22.19;63.40;101641.53;6116090;23;20023;-71
2023/09/04 09:17:54;;;;;;;5.93;5.63;;;;;;;22.26;63.52;101634.69;6114549;23;20256;-71
2023/09/04 09:20:33;;;;;;;6.18;5.88;;;;;;;22.13;63.01;101598.41;6086012;23;20081;-71
2023/09/04 09:22:59;;;;;;;5.60;5.35;;;;;;;22.24;61.63;101585.00;6114925;23;20013;-70
2023/09/04 09:25:27;;;;;;;5.80;5.50;;;;;;;22.16;62.06;101611.53;6114035;23;20770;-69
2023/09/04 09:28:07;;;;;;;5.63;5.40;;;;;;;22.22;62.10;101622.53;6111597;23;20172;-69
2023/09/04 09:30:37;;;;;;;6.13;5.82;;;;;;;22.22;61.49;101592.28;6086502;23;20092;-70
2023/09/04 09:33:09;;;;;;;5.82;5.53;;;;;;;21.87;60.71;101503.50;6114512;23;20094;-69
2023/09/04 09:35:40;;;;;;;5.80;5.50;;;;;;;21.06;60.28;101375.13;6114210;23;20036;-70
2023/09/04 09:38:08;;;;;;;5.97;5.65;;;;;;;22.40;60.58;101582.66;6110803;23;20472;-69
2023/09/04 09:40:36;;;;;;;5.78;5.47;;;;;;;22.24;59.21;101502.09;6112764;23;20018;-69
2023/09/04 09:43:03;;;;;;;5.70;5.43;;;;;;;22.59;59.36;101570.31;6115953;23;20029;-70
2023/09/04 09:45:34;;;;;;;5.78;5.47;;;;;;;22.72;58.62;101554.03;6112558;23;20025;-69
2023/09/04 09:48:08;;;;;;;5.85;5.55;;;;;;;22.52;58.63;101543.28;6062691;23;20049;-72
2023/09/04 09:50:40;;;;;;;5.63;5.35;;;;;;;22.44;59.25;101541.28;6119232;23;20025;-70
2023/09/04 09:53:06;;;;;;;6.33;5.90;;;;;;;22.59;58.41;101560.47;6091906;23;20050;-70
2023/09/04 09:55:34;;;;;;;5.50;5.30;;;;;;;22.69;58.72;101601.47;6113053;23;20010;-71
2023/09/04 09:58:01;;;;;;;5.97;5.68;;;;;;;22.90;58.18;101606.72;6061103;23;20518;-71
2023/09/04 10:00:28;;;;;;;5.95;5.65;;;;;;;23.15;59.02;101649.19;6118094;23;20084;-70
2023/09/04 10:02:54;;;;;;;5.78;5.47;;;;;;;22.88;58.06;101540.94;6086482;23;20212;-70
2023/09/04 10:05:25;;;;;;;5.82;5.53;;;;;;;23.26;57.81;101580.28;6115436;23;20025;-70
2023/09/04 10:08:00;;;;;;;5.30;5.10;;;;;;;23.04;56.24;101543.09;6095157;23;20030;-68
2023/09/04 10:10:26;;;;;;;5.47;5.28;;;;;;;23.20;57.13;101580.84;6114109;23;20034;-68
2023/09/04 10:13:04;;;;;;;5.60;5.32;;;;;;;22.96;55.88;101513.47;6092503;23;20088;-68
2023/09/04 10:15:32;;;;;;;5.90;5.60;;;;;;;23.05;56.71;101583.13;6092105;23;20073;-68
2023/09/04 10:18:10;;;;;;;6.15;5.85;;;;;;;22.90;55.29;101501.50;6060417;23;20034;-69
2023/09/04 10:20:41;;;;;;;5.50;5.30;;;;;;;23.20;53.83;101505.88;6111257;23;20085;-69
2023/09/04 10:23:12;;;;;;;5.68;5.38;;;;;;;23.17;53.32;101484.72;6116582;23;20022;-69
2023/09/04 10:25:51;;;;;;;5.68;5.38;;;;;;;22.77;54.20;101458.09;6113109;23;20033;-69
2023/09/04 10:28:32;;;;;;;5.80;5.50;;;;;;;22.95;53.86;101461.75;6088133;23;20080;-68
2023/09/04 10:31:10;;;;;;;5.78;5.47;;;;;;;23.49;54.09;101554.06;6112792;23;20029;-70
2023/09/04 10:33:38;;;;;;;5.90;5.60;;;;;;;23.78;53.28;101547.81;6112626;23;20101;-68
2023/09/04 10:36:05;;;;;;;5.65;5.35;;;;;;;23.68;52.65;101514.78;6096304;23;20048;-68
2023/09/04 10:38:33;;;;;;;6.20;5.80;;;;;;;23.93;53.42;101561.56;6065228;23;20036;-68
2023/09/04 10:41:00;;;;;;;6.18;5.78;;;;;;;23.80;52.55;101492.22;6114547;23;20123;-69
2023/09/04 10:43:47;;;;;;;6.00;5.70;;;;;;;24.31;52.65;101546.31;6113928;23;20086;-68
2023/09/04 10:46:13;;;;;;;5.68;5.38;;;;;;;23.84;53.83;101552.56;6113250;23;20032;-68
2023/09/04 10:48:45;;;;;;;5.80;5.50;;;;;;;24.30;53.98;101617.06;6109805;23;20018;-69
2023/09/04 10:51:31;;;;;;;5.90;5.60;;;;;;;23.83;53.65;101507.16;6083292;23;20030;-69
2023/09/04 10:54:01;;;;;;;5.85;5.55;;;;;;;24.66;52.45;101593.03;6062659;23;20041;-70
2023/09/04 10:56:28;;;;;;;6.13;5.75;;;;;;;24.58;53.89;101626.00;6088114;23;20018;-69
2023/09/04 10:59:05;;;;;;;6.05;5.75;;;;;;;24.88;54.04;101680.38;6084174;23;20523;-68
2023/09/04 11:01:34;;;;;;;6.18;5.80;;;;;;;25.05;51.39;101560.53;6084743;23;20034;-68
2023/09/04 11:04:02;;;;;;;6.60;6.20;;;;;;;25.12;51.90;101584.94;6085962;23;20599;-68
2023/09/04 11:06:32;;;;;;;6.10;5.80;;;;;;;24.81;51.81;101526.25;6084960;23;20030;-71
2023/09/04 11:09:02;;;;;;;6.80;5.97;;;;;;;25.16;50.93;101548.69;6055118;23;20046;-68
2023/09/04 11:11:29;;;;;;;6.20;5.90;;;;;;;25.47;51.72;101619.88;6085843;23;20026;-69
2023/09/04 11:13:57;;;;;;;6.05;5.75;;;;;;;25.15;50.75;101518.31;6085833;23;20022;-68
2023/09/04 11:16:26;;;;;;;6.03;5.70;;;;;;;25.37;49.83;101506.25;6087033;23;20100;-71
2023/09/04 11:19:05;;;;;;;6.00;5.70;;;;;;;25.23;50.29;101542.59;6085763;23;20071;-68
2023/09/04 11:21:36;;;;;;;6.05;5.70;;;;;;;25.42;50.83;101594.47;6057100;23;20025;-68
2023/09/04 11:24:04;;;;;;;6.00;5.70;;;;;;;25.68;49.73;101571.16;6086772;23;20086;-69